| time (UTC) | temp F | wind direction | speed knots | gust knots | rain 1hr in | rain 24hr in | rain mn in | humidity % | barometer mb |
| 20260508140212 | 73 | 158 | 8.7 | 12.2 | 0.00 | 0.00 | 0.00 | 52 | 1019.5 |
| 20260508135028 | 75 | 133 | 4.3 | 6.1 | 0.00 | 0.00 | 0.00 | 51 | 1019.7 |
| 20260508134052 | 75 | 165 | 4.3 | 6.1 | 0.00 | 0.00 | 0.00 | 49 | 1019.6 |
| 20260508133012 | 73 | 138 | 3.5 | 7.0 | 0.00 | 0.00 | 0.00 | 49 | 1020.2 |
| 20260508132036 | 74 | 203 | 2.6 | 7.0 | 0.00 | 0.00 | 0.00 | 48 | 1020.3 |
| 20260508131101 | 73 | 176 | 6.1 | 8.7 | 0.00 | 0.00 | 0.00 | 47 | 1020.0 |
| 20260508130020 | 74 | 92 | 4.3 | 8.7 | 0.00 | 0.00 | 0.00 | 46 | 1019.9 |
| 20260508125035 | 73 | 142 | 7.0 | 8.7 | 0.00 | 0.00 | 0.00 | 44 | 1020.3 |
| 20260508124100 | 73 | 165 | 4.3 | 7.0 | 0.00 | 0.00 | 0.00 | 44 | 1020.5 |
| 20260508123016 | 73 | 164 | 2.6 | 7.8 | 0.00 | 0.00 | 0.00 | 44 | 1021.1 |
| 20260508121827 | 73 | 88 | 3.5 | 7.8 | 0.00 | 0.00 | 0.00 | 45 | 1021.1 |
| 20260508120852 | 73 | 175 | 4.3 | 7.0 | 0.00 | 0.00 | 0.00 | 46 | 1021.2 |
| 20260508115852 | 73 | 170 | 1.7 | 5.2 | 0.00 | 0.00 | 0.00 | 46 | 1021.2 |
| 20260508114628 | 72 | 159 | 4.3 | 7.0 | 0.00 | 0.00 | 0.00 | 46 | 1021.3 |
| 20260508113651 | 72 | 179 | 0.9 | 2.6 | 0.00 | 0.00 | 0.00 | 45 | 1020.7 |
| 20260508112614 | 71 | 214 | 1.7 | 2.6 | 0.00 | 0.00 | 0.00 | 46 | 1021.7 |
| 20260508111428 | 70 | 264 | 1.7 | 1.7 | 0.00 | 0.00 | 0.00 | 48 | 1021.3 |
| 20260508110452 | 70 | 201 | 1.7 | 2.6 | 0.00 | 0.00 | 0.00 | 48 | 1021.8 |
| 20260508105412 | 69 | 236 | 2.6 | 4.3 | 0.00 | 0.00 | 0.00 | 48 | 1022.1 |
| 20260508104227 | 69 | 274 | 4.3 | 5.2 | 0.00 | 0.00 | 0.00 | 50 | 1022.6 |
| 20260508103312 | 71 | 242 | 0.9 | 2.6 | 0.00 | 0.00 | 0.00 | 49 | 1022.6 |
| 20260508102252 | 70 | 154 | 0.0 | 1.7 | 0.00 | 0.00 | 0.00 | 51 | 1022.5 |
| 20260508101028 | 69 | 264 | 0.9 | 4.3 | 0.00 | 0.00 | 0.00 | 50 | 1022.6 |
| 20260508100052 | 68 | 249 | 1.7 | 5.2 | 0.00 | 0.00 | 0.00 | 54 | 1022.8 |
| 20260508095012 | 69 | 254 | 3.5 | 7.0 | 0.00 | 0.00 | 0.00 | 52 | 1023.4 |
| 20260508093828 | 69 | 203 | 2.6 | 4.3 | 0.00 | 0.00 | 0.00 | 52 | 1023.1 |
| 20260508092852 | 69 | 231 | 1.7 | 4.3 | 0.00 | 0.00 | 0.00 | 51 | 1023.2 |
| 20260508091812 | 70 | 254 | 3.5 | 6.1 | 0.00 | 0.00 | 0.00 | 49 | 1023.2 |
| 20260508090627 | 69 | 282 | 2.6 | 6.1 | 0.00 | 0.00 | 0.00 | 51 | 1023.7 |
| 20260508085652 | 68 | 272 | 3.5 | 5.2 | 0.00 | 0.00 | 0.00 | 49 | 1023.4 |
| 20260508084612 | 68 | 247 | 1.7 | 2.6 | 0.00 | 0.00 | 0.00 | 49 | 1023.5 |
| 20260508083636 | 68 | 261 | 1.7 | 1.7 | 0.00 | 0.00 | 0.00 | 50 | 1023.3 |
| 20260508082700 | 67 | 189 | 0.9 | 4.3 | 0.00 | 0.00 | 0.00 | 48 | 1023.2 |
| 20260508081615 | 68 | 258 | 3.5 | 7.0 | 0.00 | 0.00 | 0.00 | 48 | 1023.4 |
| 20260508080637 | 67 | 252 | 5.2 | 7.0 | 0.00 | 0.00 | 0.00 | 47 | 1023.7 |
| 20260508075652 | 67 | 271 | 6.1 | 7.0 | 0.00 | 0.00 | 0.00 | 47 | 1023.5 |
| 20260508074632 | 67 | 268 | 4.3 | 6.1 | 0.00 | 0.00 | 0.00 | 46 | 1023.8 |
| 20260508073428 | 66 | 292 | 4.3 | 5.2 | 0.00 | 0.00 | 0.00 | 45 | 1023.7 |
| 20260508072453 | 66 | 226 | 2.6 | 6.1 | 0.00 | 0.00 | 0.00 | 44 | 1023.9 |
| 20260508071413 | 66 | 208 | 0.9 | 6.1 | 0.00 | 0.00 | 0.00 | 43 | 1024.3 |
| 20260508070228 | 66 | 220 | 0.9 | 2.6 | 0.00 | 0.00 | 0.00 | 43 | 1024.3 |
| 20260508065251 | 66 | 235 | 2.6 | 4.3 | 0.00 | 0.00 | 0.00 | 43 | 1024.6 |
| 20260508064211 | 66 | 286 | 0.9 | 2.6 | 0.00 | 0.00 | 0.00 | 43 | 1024.1 |
| 20260508063027 | 65 | 273 | 0.9 | 4.3 | 0.00 | 0.00 | 0.00 | 46 | 1023.9 |
| 20260508062051 | 65 | 290 | 4.3 | 5.2 | 0.00 | 0.00 | 0.00 | 48 | 1023.9 |
| 20260508061011 | 65 | 300 | 6.1 | 7.0 | 0.00 | 0.00 | 0.00 | 51 | 1023.6 |
| 20260508055827 | 65 | 278 | 2.6 | 5.2 | 0.00 | 0.00 | 0.00 | 53 | 1023.1 |
| 20260508054851 | 66 | 275 | 2.6 | 2.6 | 0.00 | 0.00 | 0.00 | 52 | 1022.6 |
| 20260508053811 | 66 | 213 | 0.9 | 0.9 | 0.00 | 0.00 | 0.00 | 51 | 1022.5 |
| 20260508052627 | 66 | 338 | 0.9 | 1.7 | 0.00 | 0.00 | 0.00 | 49 | 1022.2 |
| 20260508051650 | 66 | 127 | 0.9 | 2.6 | 0.00 | 0.00 | 0.00 | 48 | 1022.3 |
| 20260508050611 | 65 | 18 | 1.7 | 1.7 | 0.00 | 0.00 | 0.00 | 49 | 1022.2 |
| 20260508045447 | 64 | 0.0 | 0.0 | 0.00 | 0.00 | 0.00 | 54 | 1022.7 | |
| 20260508044451 | 63 | 0.0 | 0.0 | 0.00 | 0.00 | 0.00 | 54 | 1022.2 | |
| 20260508043411 | 64 | 186 | 0.0 | 0.9 | 0.00 | 0.00 | 0.00 | 53 | 1022.1 |
| 20260508042227 | 63 | 33 | 0.9 | 1.7 | 0.00 | 0.00 | 0.00 | 51 | 1021.6 |
| 20260508041251 | 64 | 0.0 | 0.9 | 0.00 | 0.00 | 0.00 | 51 | 1021.8 | |
| 20260508040211 | 64 | 106 | 0.0 | 0.9 | 0.00 | 0.00 | 0.00 | 49 | 1021.2 |
| 20260508035027 | 64 | 111 | 0.9 | 1.7 | 0.00 | 0.00 | 0.00 | 46 | 1021.5 |
| 20260508034051 | 64 | 28 | 0.9 | 1.7 | 0.00 | 0.00 | 0.00 | 47 | 1021.3 |
| 20260508033011 | 64 | 54 | 1.7 | 1.7 | 0.00 | 0.00 | 0.00 | 48 | 1021.2 |
| 20260508031827 | 63 | 55 | 0.9 | 1.7 | 0.00 | 0.00 | 0.00 | 47 | 1021.4 |
| 20260508030851 | 64 | 92 | 1.7 | 2.6 | 0.00 | 0.00 | 0.00 | 49 | 1021.4 |
| 20260508025811 | 64 | 309 | 0.9 | 0.9 | 0.00 | 0.00 | 0.00 | 46 | 1021.3 |
| 20260508024647 | 63 | 96 | 2.6 | 2.6 | 0.00 | 0.00 | 0.00 | 50 | 1021.4 |
| 20260508023651 | 65 | 0.0 | 0.0 | 0.00 | 0.00 | 0.00 | 43 | 1021.7 | |
| 20260508022611 | 65 | 129 | 0.9 | 1.7 | 0.00 | 0.00 | 0.00 | 45 | 1021.6 |
| 20260508021427 | 64 | 0.0 | 0.9 | 0.00 | 0.00 | 0.00 | 46 | 1021.5 | |
| 20260508020451 | 64 | 154 | 0.0 | 0.9 | 0.00 | 0.00 | 0.00 | 49 | 1021.5 |
| 20260508015411 | 64 | 114 | 0.9 | 2.6 | 0.00 | 0.00 | 0.00 | 52 | 1021.6 |
| 20260508014227 | 63 | 7 | 1.7 | 1.7 | 0.00 | 0.00 | 0.00 | 50 | 1021.8 |
| 20260508013251 | 64 | 0.0 | 0.9 | 0.00 | 0.00 | 0.00 | 49 | 1021.9 | |
| 20260508012211 | 63 | 99 | 0.9 | 1.7 | 0.00 | 0.00 | 0.00 | 53 | 1022.1 |
| 20260508011027 | 63 | 110 | 0.9 | 1.7 | 0.00 | 0.00 | 0.00 | 52 | 1022.0 |
| 20260508010051 | 63 | 124 | 0.9 | 0.9 | 0.00 | 0.00 | 0.00 | 55 | 1022.4 |
| 20260508005031 | 63 | 0.0 | 0.0 | 0.00 | 0.00 | 0.00 | 59 | 1022.3 | |
| 20260508004035 | 63 | 117 | 0.0 | 0.9 | 0.00 | 0.00 | 0.00 | 53 | 1022.6 |
| 20260508003059 | 63 | 0.0 | 0.9 | 0.00 | 0.00 | 0.00 | 56 | 1022.4 | |
| 20260508002032 | 63 | 0.0 | 0.9 | 0.00 | 0.00 | 0.00 | 58 | 1022.4 | |
| 20260508000828 | 63 | 2 | 2.6 | 2.6 | 0.00 | 0.00 | 0.00 | 60 | 1022.5 |
| 20260507235852 | 63 | 359 | 1.7 | 2.6 | 0.00 | 0.00 | 0.00 | 59 | 1022.6 |
| 20260507234812 | 63 | 6 | 0.9 | 1.7 | 0.00 | 0.00 | 0.00 | 58 | 1022.8 |
| 20260507233648 | 63 | 183 | 0.0 | 0.9 | 0.00 | 0.00 | 0.00 | 56 | 1023.1 |
| 20260507232653 | 63 | 0.0 | 0.0 | 0.00 | 0.00 | 0.00 | 55 | 1022.9 | |
| 20260507231612 | 63 | 0.0 | 0.9 | 0.00 | 0.00 | 0.00 | 54 | 1022.9 | |
| 20260507230448 | 63 | 224 | 0.9 | 1.7 | 0.00 | 0.00 | 0.00 | 54 | 1023.1 |
| 20260507225513 | 63 | 234 | 0.9 | 1.7 | 0.00 | 0.00 | 0.00 | 53 | 1023.2 |
| 20260507224412 | 64 | 253 | 0.9 | 1.7 | 0.00 | 0.00 | 0.00 | 51 | 1023.1 |
| 20260507223438 | 63 | 0.0 | 0.0 | 0.00 | 0.00 | 0.00 | 53 | 1023.1 | |
| 20260507222500 | 63 | 0.0 | 0.0 | 0.00 | 0.00 | 0.00 | 53 | 1023.2 | |
| 20260507221420 | 63 | 143 | 0.0 | 0.9 | 0.00 | 0.00 | 0.00 | 51 | 1023.4 |
| 20260507220440 | 63 | 0.0 | 0.0 | 0.00 | 0.00 | 0.00 | 51 | 1023.2 | |
| 20260507215500 | 63 | 0.0 | 0.9 | 0.00 | 0.00 | 0.00 | 51 | 1023.7 | |
| 20260507214421 | 63 | 0.0 | 1.7 | 0.00 | 0.00 | 0.00 | 51 | 1023.6 | |
| 20260507213457 | 64 | 101 | 0.9 | 1.7 | 0.00 | 0.00 | 0.00 | 50 | 1023.6 |
| 20260507212500 | 64 | 113 | 0.9 | 1.7 | 0.00 | 0.00 | 0.00 | 50 | 1023.7 |
| 20260507211420 | 64 | 0.0 | 0.9 | 0.00 | 0.00 | 0.00 | 51 | 1023.8 | |
| 20260507210443 | 64 | 126 | 0.9 | 0.9 | 0.00 | 0.00 | 0.00 | 52 | 1023.7 |
| 20260507205521 | 64 | 124 | 1.7 | 2.6 | 0.00 | 0.00 | 0.00 | 51 | 1023.5 |
| 20260507204421 | 64 | 120 | 3.5 | 5.2 | 0.00 | 0.00 | 0.00 | 52 | 1023.6 |
| 20260507203525 | 64 | 110 | 1.7 | 4.3 | 0.00 | 0.00 | 0.00 | 52 | 1023.6 |
| 20260507202500 | 64 | 125 | 2.6 | 6.1 | 0.00 | 0.00 | 0.00 | 51 | 1023.9 |
| 20260507201412 | 64 | 109 | 1.7 | 4.3 | 0.00 | 0.00 | 0.00 | 50 | 1023.5 |
| 20260507200248 | 64 | 156 | 4.3 | 5.2 | 0.00 | 0.00 | 0.00 | 50 | 1023.7 |
| 20260507195254 | 64 | 135 | 1.7 | 4.3 | 0.00 | 0.00 | 0.00 | 55 | 1023.9 |
| 20260507194212 | 63 | 121 | 3.5 | 6.1 | 0.00 | 0.00 | 0.00 | 55 | 1023.5 |
| 20260507193029 | 63 | 109 | 3.5 | 7.0 | 0.00 | 0.00 | 0.00 | 54 | 1023.6 |
| 20260507192113 | 63 | 102 | 2.6 | 4.3 | 0.00 | 0.00 | 0.00 | 54 | 1023.5 |
| 20260507191053 | 63 | 113 | 2.6 | 5.2 | 0.00 | 0.00 | 0.00 | 53 | 1023.4 |
| 20260507190037 | 63 | 110 | 2.6 | 5.2 | 0.00 | 0.00 | 0.00 | 53 | 1023.5 |
| 20260507185100 | 63 | 104 | 3.5 | 4.3 | 0.00 | 0.00 | 0.00 | 53 | 1023.6 |
| 20260507184013 | 63 | 117 | 2.6 | 4.3 | 0.00 | 0.00 | 0.00 | 53 | 1023.3 |
| 20260507182829 | 64 | 145 | 3.5 | 5.2 | 0.00 | 0.00 | 0.00 | 53 | 1023.3 |
| 20260507181852 | 64 | 118 | 2.6 | 4.3 | 0.00 | 0.00 | 0.00 | 54 | 1023.3 |
| 20260507180812 | 64 | 111 | 2.6 | 4.3 | 0.00 | 0.00 | 0.00 | 54 | 1023.4 |
| 20260507175628 | 64 | 122 | 4.3 | 5.2 | 0.00 | 0.00 | 0.00 | 56 | 1023.4 |
| 20260507174652 | 64 | 76 | 2.6 | 5.2 | 0.00 | 0.00 | 0.00 | 57 | 1023.0 |
| 20260507173632 | 64 | 142 | 2.6 | 7.8 | 0.00 | 0.00 | 0.00 | 57 | 1023.0 |
| 20260507172428 | 65 | 165 | 3.5 | 6.1 | 0.00 | 0.00 | 0.00 | 56 | 1022.9 |
| 20260507171452 | 65 | 117 | 2.6 | 6.1 | 0.00 | 0.00 | 0.00 | 55 | 1022.7 |
| 20260507170452 | 66 | 119 | 2.6 | 8.7 | 0.00 | 0.00 | 0.00 | 55 | 1022.5 |
| 20260507165248 | 67 | 149 | 6.1 | 8.7 | 0.00 | 0.00 | 0.00 | 53 | 1022.7 |
| 20260507164312 | 67 | 169 | 0.9 | 5.2 | 0.00 | 0.00 | 0.00 | 52 | 1022.2 |
| 20260507163213 | 68 | 132 | 3.5 | 5.2 | 0.00 | 0.00 | 0.00 | 51 | 1022.4 |
| 20260507162028 | 68 | 167 | 3.5 | 6.1 | 0.00 | 0.00 | 0.00 | 49 | 1022.1 |
| 20260507161113 | 69 | 108 | 4.3 | 5.2 | 0.00 | 0.00 | 0.00 | 46 | 1022.3 |
| 20260507160012 | 70 | 121 | 2.6 | 4.3 | 0.00 | 0.00 | 0.00 | 43 | 1022.0 |
| 20260507154849 | 71 | 130 | 5.2 | 7.0 | 0.00 | 0.00 | 0.00 | 41 | 1022.4 |
| 20260507153913 | 72 | 133 | 2.6 | 6.1 | 0.00 | 0.00 | 0.00 | 38 | 1022.3 |
| 20260507152812 | 73 | 106 | 2.6 | 5.2 | 0.00 | 0.00 | 0.00 | 35 | 1022.3 |
| 20260507151628 | 73 | 182 | 4.3 | 6.1 | 0.00 | 0.00 | 0.00 | 35 | 1022.2 |
| 20260507150653 | 73 | 11 | 1.7 | 6.1 | 0.00 | 0.00 | 0.00 | 35 | 1022.2 |
| 20260507145632 | 73 | 94 | 6.1 | 7.8 | 0.00 | 0.00 | 0.00 | 34 | 1022.2 |
| 20260507144428 | 73 | 166 | 4.3 | 7.0 | 0.00 | 0.00 | 0.00 | 32 | 1022.2 |
| 20260507143452 | 74 | 111 | 5.2 | 7.8 | 0.00 | 0.00 | 0.00 | 32 | 1022.3 |
| 20260507142412 | 74 | 153 | 4.3 | 7.8 | 0.00 | 0.00 | 0.00 | 32 | 1022.3 |
| 20260507141247 | 74 | 164 | 7.0 | 9.6 | 0.00 | 0.00 | 0.00 | 32 | 1022.1 |